Time;durP1;ratioP1;P1;durP2;ratioP2;P2;SDS_P1;SDS_P2;PMS_P1;PMS_P2;Temp;Humidity;BMP_temperature;BMP_pressure;BME280_temperature;BME280_humidity;BME280_pressure;Samples;Min_cycle;Max_cycle;Signal;HPM_P1;HPM_P2
2023/10/12 00:01:25;;;;;;;0.28;0.28;;;;;;;9.86;90.76;95479.56;5031541;28;20307;-75
2023/10/12 00:03:58;;;;;;;1.00;0.98;;;;;;;9.83;90.58;95474.78;5044990;28;20204;-75
2023/10/12 00:06:26;;;;;;;0.30;0.30;;;;;;;9.72;91.00;95476.06;5037777;28;20204;-76
2023/10/12 00:08:53;;;;;;;0.40;0.40;;;;;;;9.66;91.46;95461.06;5031639;28;20212;-76
2023/10/12 00:11:22;;;;;;;3.17;1.73;;;;;;;9.65;92.22;95467.56;5042056;28;20208;-76
2023/10/12 00:13:51;;;;;;;2.58;1.48;;;;;;;9.63;91.97;95464.34;5038923;28;20227;-76
2023/10/12 00:16:20;;;;;;;3.80;1.85;;;;;;;9.68;92.37;95461.56;5036593;28;20215;-76
2023/10/12 00:18:49;;;;;;;2.17;1.50;;;;;;;9.72;91.67;95457.13;5034312;28;20208;-76
2023/10/12 00:21:25;;;;;;;2.20;1.50;;;;;;;9.66;91.51;95466.47;5044400;28;20259;-75
2023/10/12 00:23:55;;;;;;;1.58;1.33;;;;;;;9.62;91.28;95462.75;5031322;28;20283;-76
2023/10/12 00:26:23;;;;;;;2.15;1.50;;;;;;;9.54;91.71;95449.94;5035060;28;20595;-76
2023/10/12 00:28:51;;;;;;;2.47;1.42;;;;;;;9.53;91.79;95448.34;5044232;28;20517;-75
2023/10/12 00:31:19;;;;;;;1.75;1.20;;;;;;;9.43;91.23;95443.91;5042017;28;20218;-75
2023/10/12 00:33:49;;;;;;;1.98;1.20;;;;;;;9.39;91.69;95440.22;5030098;28;20337;-76
2023/10/12 00:36:24;;;;;;;1.85;1.23;;;;;;;9.45;91.69;95441.72;5040682;28;20238;-75
2023/10/12 00:38:52;;;;;;;1.75;1.20;;;;;;;9.40;91.92;95435.63;5024765;28;20228;-76
2023/10/12 00:41:19;;;;;;;3.00;1.35;;;;;;;9.42;92.06;95436.91;5037460;28;20254;-76
2023/10/12 00:43:53;;;;;;;2.40;1.50;;;;;;;9.46;91.77;95437.09;5034483;28;20266;-76
2023/10/12 00:46:39;;;;;;;1.77;1.27;;;;;;;9.39;91.48;95439.41;5029687;28;20205;-77
2023/10/12 00:49:19;;;;;;;3.92;2.05;;;;;;;9.35;91.75;95430.28;5038290;28;20240;-76
2023/10/12 00:51:51;;;;;;;4.35;2.00;;;;;;;9.32;91.19;95426.28;5034359;28;20210;-75
2023/10/12 00:54:26;;;;;;;2.25;1.48;;;;;;;9.25;91.96;95432.09;5036569;28;21086;-75
2023/10/12 00:56:57;;;;;;;0.20;0.20;;;;;;;9.20;91.79;95429.47;5039469;28;20546;-77
2023/10/12 00:59:27;;;;;;;0.28;0.28;;;;;;;9.16;92.03;95433.88;5035992;28;20205;-77
2023/10/12 01:01:54;;;;;;;0.40;0.40;;;;;;;9.20;92.32;95425.97;5037486;28;20204;-76
2023/10/12 01:04:22;;;;;;;0.20;0.20;;;;;;;9.20;92.35;95429.47;5045211;28;20227;-76
2023/10/12 01:06:49;;;;;;;0.20;0.20;;;;;;;9.25;91.38;95426.69;5036546;28;20291;-76
2023/10/12 01:09:19;;;;;;;0.30;0.30;;;;;;;9.24;90.69;95427.78;5033170;28;20213;-75
2023/10/12 01:11:53;;;;;;;0.30;0.30;;;;;;;9.10;92.74;95435.06;5025419;28;20207;-75
2023/10/12 01:14:26;;;;;;;0.32;0.32;;;;;;;9.04;93.77;95430.03;5040888;28;20566;-75
2023/10/12 01:16:59;;;;;;;0.30;0.30;;;;;;;9.06;93.76;95428.66;5034604;28;20212;-75
2023/10/12 01:19:30;;;;;;;2.40;1.40;;;;;;;8.98;93.90;95421.25;5045078;28;20619;-76
2023/10/12 01:22:07;;;;;;;1.67;1.40;;;;;;;8.99;94.45;95427.47;5044517;28;20206;-76
2023/10/12 01:24:35;;;;;;;0.20;0.20;;;;;;;8.92;94.63;95427.81;5035045;28;20196;-75
2023/10/12 01:27:03;;;;;;;0.20;0.20;;;;;;;8.97;95.21;95427.75;5044330;28;20290;-75
2023/10/12 01:29:31;;;;;;;0.30;0.30;;;;;;;8.97;95.08;95419.66;5041618;28;20615;-76
2023/10/12 01:34:51;;;;;;;3.75;1.52;;;;;;;9.01;95.02;95419.84;5032428;28;20218;-76
2023/10/12 01:37:22;;;;;;;1.60;1.17;;;;;;;9.02;94.64;95418.75;5042935;28;20204;-76
2023/10/12 01:39:56;;;;;;;3.28;1.92;;;;;;;9.02;94.57;95419.53;5024538;28;20322;-75
2023/10/12 01:42:34;;;;;;;0.20;0.20;;;;;;;9.03;94.63;95415.72;5030087;28;20191;-76
2023/10/12 01:45:02;;;;;;;0.50;0.50;;;;;;;9.02;94.30;95422.22;5044126;28;20207;-76
2023/10/12 01:47:29;;;;;;;0.20;0.20;;;;;;;9.04;94.32;95425.44;5042079;28;20318;-75
2023/10/12 01:50:00;;;;;;;0.30;0.30;;;;;;;8.99;93.96;95417.44;5039162;28;20207;-76
2023/10/12 01:52:28;;;;;;;1.23;1.05;;;;;;;8.99;93.96;95422.84;5040960;28;20210;-75
2023/10/12 01:54:58;;;;;;;0.40;0.40;;;;;;;8.96;94.11;95426.13;5044771;28;20224;-75
2023/10/12 01:57:32;;;;;;;0.45;0.45;;;;;;;8.96;93.77;95423.44;5039116;28;20262;-75
2023/10/12 01:59:59;;;;;;;0.30;0.30;;;;;;;8.95;93.74;95427.25;5033382;28;20236;-75
2023/10/12 02:02:26;;;;;;;0.20;0.20;;;;;;;8.89;93.92;95429.22;5034924;28;20207;-75
2023/10/12 02:04:54;;;;;;;0.20;0.20;;;;;;;8.88;93.93;95433.00;5031077;28;20255;-74
2023/10/12 02:07:21;;;;;;;1.55;1.20;;;;;;;8.90;94.27;95440.81;5037096;28;20223;-74
2023/10/12 02:09:50;;;;;;;2.00;1.30;;;;;;;8.88;94.28;95434.94;5036754;28;20200;-73
2023/10/12 02:12:25;;;;;;;0.30;0.30;;;;;;;8.90;93.95;95430.03;5035898;28;20617;-73
2023/10/12 02:14:52;;;;;;;0.43;0.43;;;;;;;8.79;94.29;95436.69;5030582;28;20212;-73
2023/10/12 02:17:25;;;;;;;2.45;1.48;;;;;;;8.62;95.42;95433.75;5034063;28;20295;-73
2023/10/12 02:19:55;;;;;;;2.92;1.27;;;;;;;8.66;95.89;95434.75;5048110;28;20640;-73
2023/10/12 02:22:25;;;;;;;2.25;1.75;;;;;;;8.64;95.99;95437.75;5035062;28;20310;-74
2023/10/12 02:25:02;;;;;;;2.53;1.58;;;;;;;8.67;96.10;95431.78;5035101;28;20226;-74
2023/10/12 02:27:31;;;;;;;3.80;1.42;;;;;;;8.65;96.45;95438.56;5033070;28;20262;-73
2023/10/12 02:29:58;;;;;;;2.15;1.45;;;;;;;8.70;96.02;95433.09;5045814;28;20544;-73
2023/10/12 02:32:25;;;;;;;0.30;0.30;;;;;;;8.66;96.32;95434.75;5034600;28;20259;-73
2023/10/12 02:34:55;;;;;;;0.30;0.30;;;;;;;8.74;96.19;95432.22;5040435;28;20238;-72
2023/10/12 02:37:24;;;;;;;0.68;0.68;;;;;;;8.77;95.45;95425.38;5033703;28;20212;-74
2023/10/12 02:39:54;;;;;;;0.20;0.20;;;;;;;8.70;95.53;95435.78;5042024;28;20937;-73
2023/10/12 02:42:38;;;;;;;2.10;1.45;;;;;;;8.64;95.80;95431.53;5031497;28;20295;-73
2023/10/12 02:45:17;;;;;;;1.77;1.50;;;;;;;8.63;95.84;95443.44;5026402;28;20204;-72
2023/10/12 02:47:46;;;;;;;2.13;1.13;;;;;;;8.58;96.26;95438.94;5028589;28;20199;-72
2023/10/12 02:50:29;;;;;;;3.45;1.75;;;;;;;8.63;96.41;95435.34;5029162;28;20212;-75
2023/10/12 02:52:56;;;;;;;2.80;1.65;;;;;;;8.67;96.09;95431.78;5035797;28;20668;-74
2023/10/12 02:55:34;;;;;;;3.90;1.70;;;;;;;8.70;95.61;95430.38;5032272;28;20551;-72
2023/10/12 02:58:06;;;;;;;1.48;1.23;;;;;;;8.65;96.01;95427.75;5042941;28;20227;-73
2023/10/12 03:00:35;;;;;;;0.20;0.20;;;;;;;8.59;96.52;95423.56;5041706;28;20239;-73
2023/10/12 03:03:16;;;;;;;0.47;0.47;;;;;;;8.63;95.99;95425.34;5036454;28;20627;-73
2023/10/12 03:05:47;;;;;;;0.20;0.20;;;;;;;8.53;96.15;95426.31;5042126;28;20589;-72
2023/10/12 03:08:14;;;;;;;0.20;0.20;;;;;;;8.56;95.88;95422.22;5040878;28;20212;-72
2023/10/12 03:11:08;;;;;;;0.20;0.20;;;;;;;8.46;95.96;95415.13;5040204;28;20203;-73
2023/10/12 03:13:37;;;;;;;2.67;1.60;;;;;;;8.48;96.20;95423.69;5031306;28;20208;-72
2023/10/12 03:16:13;;;;;;;1.27;1.17;;;;;;;8.45;96.60;95424.31;5040593;28;20262;-73
2023/10/12 03:18:40;;;;;;;2.78;1.50;;;;;;;8.41;96.81;95423.28;5033375;28;20209;-72
2023/10/12 03:21:11;;;;;;;4.05;2.08;;;;;;;8.48;96.55;95414.78;5033242;28;20699;-73
2023/10/12 03:23:38;;;;;;;7.78;2.20;;;;;;;8.45;96.53;95418.91;5041411;28;20215;-73
2023/10/12 03:26:18;;;;;;;0.43;0.43;;;;;;;8.46;96.42;95409.72;5039037;28;20216;-73
2023/10/12 03:28:45;;;;;;;1.38;0.82;;;;;;;8.39;96.52;95408.47;5038040;28;20196;-73
2023/10/12 03:31:25;;;;;;;0.20;0.20;;;;;;;8.38;97.04;95420.34;5037008;28;20211;-73
2023/10/12 03:33:55;;;;;;;0.82;0.82;;;;;;;8.38;97.04;95413.06;5042683;28;20204;-75
2023/10/12 03:36:24;;;;;;;0.40;0.40;;;;;;;8.39;96.92;95411.97;5029865;28;20223;-73
2023/10/12 03:41:54;;;;;;;0.43;0.43;;;;;;;8.47;96.48;95411.28;5045563;28;20687;-73
2023/10/12 03:44:35;;;;;;;0.20;0.20;;;;;;;8.53;95.99;95426.31;5029612;28;20204;-74
2023/10/12 03:47:05;;;;;;;0.20;0.20;;;;;;;8.47;96.11;95432.88;5031618;28;20204;-73
2023/10/12 03:49:44;;;;;;;0.20;0.20;;;;;;;8.43;95.91;95426.50;5031973;28;20200;-75
2023/10/12 03:52:13;;;;;;;0.20;0.20;;;;;;;8.41;95.76;95428.69;5032576;28;20203;-75
2023/10/12 03:54:55;;;;;;;0.20;0.20;;;;;;;8.41;95.56;95412.47;5033701;28;20605;-75
2023/10/12 03:57:35;;;;;;;0.30;0.30;;;;;;;8.40;95.43;95421.66;5034473;28;20208;-73
2023/10/12 04:02:47;;;;;;;0.60;0.60;;;;;;;8.36;95.42;95415.25;5032450;28;20656;-76
2023/10/12 04:05:18;;;;;;;0.28;0.28;;;;;;;8.39;95.46;95422.75;5034153;28;20661;-76
2023/10/12 04:08:00;;;;;;;0.30;0.30;;;;;;;8.33;96.04;95426.66;5034311;28;20210;-76
2023/10/12 04:11:19;;;;;;;0.95;0.85;;;;;;;8.35;96.07;95429.84;5029116;28;20204;-77
2023/10/12 04:19:08;;;;;;;0.43;0.43;;;;;;;8.28;97.24;95434.78;5087749;27;20904;-77
2023/10/12 04:21:36;;;;;;;3.85;1.77;;;;;;;8.22;97.47;95430.53;5086866;28;20207;-76
2023/10/12 04:29:30;;;;;;;0.60;0.60;;;;;;;8.24;96.89;95432.97;5087854;28;20209;-76
2023/10/12 04:32:09;;;;;;;3.88;2.53;;;;;;;8.17;97.13;95433.34;5077938;28;20207;-77
2023/10/12 04:34:47;;;;;;;3.58;1.85;;;;;;;8.24;97.00;95432.97;5078067;28;20211;-76
2023/10/12 04:37:17;;;;;;;3.70;2.10;;;;;;;8.14;96.82;95433.91;5072023;28;20589;-76
2023/10/12 04:39:56;;;;;;;0.47;0.47;;;;;;;8.15;97.61;95430.13;5085808;28;20250;-76
2023/10/12 04:42:24;;;;;;;0.20;0.20;;;;;;;8.08;97.80;95426.97;5065840;28;20574;-76
2023/10/12 04:45:03;;;;;;;2.17;0.52;;;;;;;8.13;97.75;95426.91;5065228;28;20588;-77
2023/10/12 04:47:30;;;;;;;0.57;0.57;;;;;;;8.23;97.92;95425.94;5069894;28;20682;-76
2023/10/12 04:49:58;;;;;;;0.38;0.38;;;;;;;8.25;97.53;95419.16;5082616;28;20199;-77
2023/10/12 04:52:36;;;;;;;4.80;1.42;;;;;;;8.33;97.50;95420.44;5079789;28;20214;-78
2023/10/12 05:00:47;;;;;;;0.20;0.20;;;;;;;9.50;96.88;95411.88;5072754;28;20208;-73
2023/10/12 05:03:25;;;;;;;0.20;0.20;;;;;;;10.74;94.45;95416.97;5075572;28;20374;-73
2023/10/12 05:06:04;;;;;;;0.85;0.47;;;;;;;11.94;88.02;95405.88;5066309;28;20486;-74
2023/10/12 05:08:33;;;;;;;0.60;0.60;;;;;;;13.03;80.78;95407.28;5084042;28;20560;-75
2023/10/12 05:11:06;;;;;;;1.70;1.05;;;;;;;13.96;75.10;95406.44;5068387;28;20488;-75
2023/10/12 05:13:33;;;;;;;0.22;0.22;;;;;;;14.81;70.90;95406.16;5063238;28;20724;-74
2023/10/12 05:16:06;;;;;;;0.20;0.20;;;;;;;15.53;68.17;95397.38;5066653;28;20203;-74
2023/10/12 05:18:34;;;;;;;0.50;0.50;;;;;;;16.00;66.35;95396.94;5066274;28;20380;-75
2023/10/12 05:21:10;;;;;;;0.55;0.55;;;;;;;16.07;66.31;95399.91;5066450;28;20222;-75
2023/10/12 05:23:37;;;;;;;0.28;0.28;;;;;;;16.60;64.31;95404.22;5058175;28;20507;-76
2023/10/12 05:26:14;;;;;;;0.85;0.85;;;;;;;16.99;62.78;95407.31;5066357;28;20639;-76
2023/10/12 05:28:58;;;;;;;0.35;0.35;;;;;;;16.99;62.09;95405.38;5062526;28;20207;-76
2023/10/12 05:31:28;;;;;;;0.60;0.60;;;;;;;16.81;62.80;95417.75;5053309;28;20294;-78
2023/10/12 05:34:20;;;;;;;3.20;0.73;;;;;;;17.52;60.56;95416.94;5043883;28;20211;-80
2023/10/12 05:36:48;;;;;;;0.20;0.20;;;;;;;17.17;59.92;95421.50;5052852;28;20277;-81
2023/10/12 05:39:17;;;;;;;0.43;0.43;;;;;;;17.49;57.94;95420.41;5060451;28;20231;-81
2023/10/12 05:41:44;;;;;;;0.25;0.25;;;;;;;17.55;57.23;95410.78;5073690;28;20274;-78
2023/10/12 05:44:15;;;;;;;3.50;1.67;;;;;;;17.30;59.30;95425.75;5063799;28;20269;-77
2023/10/12 05:46:51;;;;;;;18.38;0.98;;;;;;;16.90;58.93;95423.91;5052159;28;20211;-80
2023/10/12 05:49:23;;;;;;;0.40;0.40;;;;;;;16.61;59.88;95426.91;5051856;28;20207;-78
2023/10/12 05:51:51;;;;;;;0.60;0.60;;;;;;;16.87;58.67;95424.59;5052329;28;20215;-78
2023/10/12 05:54:20;;;;;;;1.77;0.98;;;;;;;17.03;58.25;95433.66;5052197;28;20222;-76
2023/10/12 05:56:49;;;;;;;0.45;0.35;;;;;;;17.30;57.31;95425.75;5051667;28;20265;-77
2023/10/12 05:59:18;;;;;;;0.30;0.30;;;;;;;17.28;57.67;95422.56;5051572;28;20240;-77
2023/10/12 06:01:48;;;;;;;3.33;2.05;;;;;;;17.42;57.22;95412.00;5044449;28;20216;-77
2023/10/12 06:04:19;;;;;;;2.42;1.55;;;;;;;17.70;56.28;95417.44;5037071;28;20227;-78
2023/10/12 06:06:47;;;;;;;1.13;1.00;;;;;;;18.63;53.71;95420.41;5051616;28;20287;-79
2023/10/12 06:09:20;;;;;;;0.80;0.63;;;;;;;19.13;53.21;95416.75;5040844;28;20216;-78
2023/10/12 06:11:48;;;;;;;0.22;0.22;;;;;;;19.08;52.64;95409.59;5049484;28;20328;-76
2023/10/12 06:14:20;;;;;;;0.30;0.30;;;;;;;19.18;51.76;95413.69;5068209;28;20215;-76
2023/10/12 06:16:47;;;;;;;7.13;0.57;;;;;;;20.23;49.29;95407.69;5045203;28;20199;-77
2023/10/12 06:19:23;;;;;;;0.60;0.60;;;;;;;20.91;47.86;95407.47;5051545;28;20228;-76
2023/10/12 06:25:18;;;;;;;3.03;2.35;;;;;;;19.02;50.85;95421.22;5029347;28;20251;-78
2023/10/12 06:27:44;;;;;;;1.85;1.67;;;;;;;19.40;50.28;95420.41;5051883;28;20203;-79
2023/10/12 06:30:18;;;;;;;2.80;1.80;;;;;;;19.83;49.46;95411.75;5050881;28;20199;-76
2023/10/12 06:32:47;;;;;;;0.40;0.40;;;;;;;19.65;49.65;95410.69;5051564;28;20204;-76
2023/10/12 06:35:23;;;;;;;0.13;0.13;;;;;;;18.76;51.32;95424.63;5043774;28;20204;-75
2023/10/12 06:37:59;;;;;;;0.30;0.30;;;;;;;18.37;52.95;95423.72;5050206;28;20227;-76
2023/10/12 06:40:47;;;;;;;1.20;0.98;;;;;;;17.99;53.72;95424.41;5050360;28;20277;-74
2023/10/12 06:45:58;;;;;;;0.60;0.60;;;;;;;17.75;54.62;95426.19;5043803;28;20223;-76
2023/10/12 06:48:58;;;;;;;2.60;1.92;;;;;;;17.60;55.19;95421.47;5066501;28;20211;-81
2023/10/12 06:51:30;;;;;;;3.17;0.60;;;;;;;17.07;57.10;95427.47;5070459;28;20213;-81
2023/10/12 06:54:17;;;;;;;0.75;0.68;;;;;;;17.12;57.63;95440.91;5072098;28;20249;-82
2023/10/12 06:56:50;;;;;;;0.47;0.47;;;;;;;16.61;58.01;95438.66;5054900;28;20206;-82
2023/10/12 06:59:21;;;;;;;0.40;0.40;;;;;;;16.07;59.49;95429.97;5061287;28;20225;-80
2023/10/12 07:02:05;;;;;;;0.20;0.20;;;;;;;15.71;61.73;95436.22;5051979;28;20295;-76
2023/10/12 07:04:37;;;;;;;0.70;0.70;;;;;;;15.73;61.67;95446.78;5050102;28;20223;-78
2023/10/12 07:07:11;;;;;;;0.55;0.55;;;;;;;14.91;63.84;95450.19;5060598;28;20245;-81
2023/10/12 07:09:40;;;;;;;3.38;1.83;;;;;;;15.29;64.21;95441.81;5073599;28;20232;-79
2023/10/12 07:12:10;;;;;;;3.80;2.13;;;;;;;15.54;63.09;95445.41;5071068;28;20244;-82
2023/10/12 07:14:39;;;;;;;1.65;1.10;;;;;;;14.94;64.65;95437.81;5064711;28;20199;-79
2023/10/12 07:17:07;;;;;;;0.38;0.38;;;;;;;14.69;65.79;95447.81;5061367;28;20265;-78
2023/10/12 07:19:35;;;;;;;0.50;0.50;;;;;;;15.11;64.56;95442.31;5051845;28;20231;-82
2023/10/12 07:22:08;;;;;;;1.65;1.50;;;;;;;15.27;64.50;95443.28;5064091;28;20249;-82
2023/10/12 07:24:39;;;;;;;0.20;0.20;;;;;;;15.58;64.15;95429.94;5061313;28;20250;-82
2023/10/12 07:27:19;;;;;;;0.57;0.57;;;;;;;15.06;64.39;95445.25;5047185;28;20250;-81
2023/10/12 07:29:50;;;;;;;1.65;1.55;;;;;;;14.62;65.76;95444.84;5070971;28;20293;-82
2023/10/12 07:32:24;;;;;;;0.45;0.45;;;;;;;14.60;66.51;95446.31;5053199;28;20227;-82
2023/10/12 07:34:54;;;;;;;0.82;0.40;;;;;;;14.64;66.33;95434.38;5045434;28;20204;-84
2023/10/12 07:37:21;;;;;;;14.60;1.27;;;;;;;14.31;67.09;95438.94;5044578;28;20584;-80
2023/10/12 07:39:50;;;;;;;0.43;0.43;;;;;;;14.71;66.19;95437.38;5070395;28;20226;-84
2023/10/12 07:42:25;;;;;;;4.88;0.95;;;;;;;14.92;65.54;95438.16;5070411;28;20264;-84
2023/10/12 07:44:54;;;;;;;0.30;0.30;;;;;;;15.20;64.82;95434.84;5052101;28;20204;-85
2023/10/12 07:47:31;;;;;;;0.73;0.63;;;;;;;14.73;65.71;95432.41;5050799;28;20828;-83
2023/10/12 07:50:07;;;;;;;0.43;0.43;;;;;;;15.32;63.95;95437.59;5070679;28;20206;-84
2023/10/12 07:52:46;;;;;;;0.60;0.60;;;;;;;15.17;64.86;95449.19;5071295;28;20202;-83
2023/10/12 07:55:17;;;;;;;0.40;0.40;;;;;;;15.06;65.35;95434.34;5058397;28;20267;-82
2023/10/12 07:57:46;;;;;;;2.10;1.40;;;;;;;15.62;64.14;95430.06;5057233;28;20199;-82
2023/10/12 08:00:34;;;;;;;6.80;2.47;;;;;;;15.88;62.88;95416.06;5069946;28;20638;-81
2023/10/12 08:03:16;;;;;;;0.98;0.65;;;;;;;16.14;62.06;95429.38;5070002;28;20341;-78
2023/10/12 08:05:56;;;;;;;3.08;2.03;;;;;;;16.23;61.44;95421.88;5048110;28;20205;-77
2023/10/12 08:08:37;;;;;;;0.57;0.57;;;;;;;16.42;60.73;95418.53;5037007;28;20253;-75
2023/10/12 08:11:09;;;;;;;2.30;0.73;;;;;;;16.26;61.70;95421.97;5049404;28;20207;-76
2023/10/12 08:13:47;;;;;;;0.68;0.68;;;;;;;16.27;61.62;95418.09;5050107;28;20335;-75
2023/10/12 08:16:15;;;;;;;4.18;1.88;;;;;;;16.56;60.71;95419.75;5045079;28;20203;-76
2023/10/12 08:19:23;;;;;;;2.40;1.90;;;;;;;16.71;59.91;95410.03;5069741;28;20243;-77
2023/10/12 08:21:42;;;;;;;2.70;2.03;;;;;;;16.40;60.35;95409.88;5067117;28;20211;-77
2023/10/12 08:24:23;;;;;;;0.30;0.30;;;;;;;16.29;61.13;95399.41;5065876;28;20203;-77
2023/10/12 08:27:25;;;;;;;2.92;1.83;;;;;;;16.07;61.03;95408.09;5043347;28;20272;-78
2023/10/12 08:30:11;;;;;;;0.22;0.22;;;;;;;16.20;61.24;95401.47;5038453;28;20346;-78
2023/10/12 08:32:42;;;;;;;0.52;0.45;;;;;;;16.31;60.29;95396.31;5048908;28;20211;-79
2023/10/12 08:35:35;;;;;;;2.47;1.77;;;;;;;16.69;60.04;95384.97;5041324;28;20206;-78
2023/10/12 08:38:16;;;;;;;0.60;0.60;;;;;;;16.85;59.38;95383.06;5039421;28;20214;-79
2023/10/12 08:46:31;;;;;;;0.20;0.20;;;;;;;16.45;59.75;95380.34;5039156;28;20235;-77
2023/10/12 08:49:33;;;;;;;0.20;0.20;;;;;;;16.75;59.58;95378.13;5037298;28;20277;-78
2023/10/12 08:52:05;;;;;;;3.42;0.98;;;;;;;16.80;59.01;95380.59;5048371;28;20221;-77
2023/10/12 08:54:35;;;;;;;0.20;0.20;;;;;;;16.69;59.87;95374.00;5046021;28;20200;-77
2023/10/12 08:57:09;;;;;;;0.20;0.20;;;;;;;16.73;59.40;95369.44;5046138;28;20211;-76
2023/10/12 08:59:38;;;;;;;0.25;0.25;;;;;;;16.77;59.27;95364.88;5068972;28;20250;-78
2023/10/12 09:02:19;;;;;;;0.57;0.32;;;;;;;16.82;59.07;95356.41;5069240;28;20203;-81
2023/10/12 09:04:49;;;;;;;0.43;0.43;;;;;;;16.91;58.76;95354.31;5070698;28;20211;-81
2023/10/12 09:07:19;;;;;;;0.60;0.60;;;;;;;17.23;57.91;95344.19;5072576;28;20691;-81
2023/10/12 09:09:48;;;;;;;0.22;0.22;;;;;;;16.92;58.98;95350.44;5071861;28;20239;-82
2023/10/12 09:12:19;;;;;;;1.55;1.10;;;;;;;17.23;58.49;95344.19;5072573;28;20207;-81
2023/10/12 09:14:46;;;;;;;3.47;0.95;;;;;;;17.73;56.77;95340.78;5073216;28;20203;-81
2023/10/12 09:17:30;;;;;;;0.68;0.68;;;;;;;17.96;56.21;95331.91;5072780;28;20235;-81
2023/10/12 09:20:21;;;;;;;0.47;0.47;;;;;;;17.85;55.71;95330.88;5073627;28;20305;-80
2023/10/12 09:22:47;;;;;;;0.80;0.80;;;;;;;17.93;55.68;95327.13;5072690;28;20203;-80
2023/10/12 09:25:49;;;;;;;1.23;1.13;;;;;;;17.91;55.85;95318.47;5061430;28;20207;-81
2023/10/12 09:28:05;;;;;;;3.58;2.00;;;;;;;17.65;56.60;95319.84;5042306;28;20298;-80
2023/10/12 09:30:35;;;;;;;0.52;0.52;;;;;;;17.74;56.45;95311.44;5068963;28;20207;-80
2023/10/12 09:33:29;;;;;;;0.95;0.88;;;;;;;17.82;56.57;95309.66;5072940;28;20214;-79
2023/10/12 09:36:00;;;;;;;1.83;0.82;;;;;;;17.77;55.83;95308.75;5058691;28;20208;-80
2023/10/12 09:38:30;;;;;;;0.35;0.35;;;;;;;17.22;57.42;95306.25;5047683;28;20224;-80
2023/10/12 09:41:00;;;;;;;0.70;0.70;;;;;;;17.59;56.95;95296.59;5053172;28;20644;-80
2023/10/12 09:43:30;;;;;;;0.63;0.63;;;;;;;17.92;56.30;95298.13;5062611;28;20702;-81
2023/10/12 09:46:05;;;;;;;0.60;0.60;;;;;;;18.11;55.32;95289.94;5053143;28;20664;-81
2023/10/12 09:48:38;;;;;;;1.30;1.20;;;;;;;18.22;55.28;95285.47;5053011;28;20207;-80
2023/10/12 09:51:10;;;;;;;3.63;2.40;;;;;;;18.49;55.24;95283.66;5048004;28;20565;-79
2023/10/12 09:53:42;;;;;;;1.40;0.98;;;;;;;18.84;54.73;95267.13;5054969;28;20240;-80
2023/10/12 09:56:15;;;;;;;0.85;0.65;;;;;;;19.01;53.09;95271.34;5049800;28;20274;-80
2023/10/12 09:58:51;;;;;;;1.08;0.75;;;;;;;18.92;53.65;95266.09;5054123;28;20216;-80
2023/10/12 10:01:22;;;;;;;0.70;0.70;;;;;;;18.85;54.05;95260.50;5054326;28;20303;-77
2023/10/12 10:04:06;;;;;;;2.42;1.52;;;;;;;18.87;54.43;95260.09;5049965;28;20258;-77
2023/10/12 10:06:38;;;;;;;2.45;1.50;;;;;;;18.78;54.13;95252.09;5054511;28;20213;-75
2023/10/12 10:09:23;;;;;;;0.75;0.75;;;;;;;18.79;53.93;95253.69;5049833;28;20262;-77
2023/10/12 10:11:58;;;;;;;3.42;0.55;;;;;;;19.08;53.50;95244.81;5048374;28;20682;-77
2023/10/12 10:14:29;;;;;;;0.65;0.65;;;;;;;19.41;52.89;95235.13;5051405;28;20199;-75
2023/10/12 10:17:00;;;;;;;2.25;0.75;;;;;;;19.63;51.75;95239.81;5052833;28;20223;-75
2023/10/12 10:19:32;;;;;;;2.13;1.95;;;;;;;19.94;51.72;95241.44;5056079;28;20226;-76
2023/10/12 10:22:05;;;;;;;1.40;0.82;;;;;;;19.94;51.34;95235.16;5046747;28;20278;-75
2023/10/12 10:24:45;;;;;;;0.63;0.63;;;;;;;20.08;50.62;95230.63;5050089;28;20207;-76
2023/10/12 10:27:14;;;;;;;0.75;0.75;;;;;;;19.54;51.34;95233.81;5052186;28;20214;-75
2023/10/12 10:29:52;;;;;;;2.25;1.15;;;;;;;19.35;52.73;95225.63;5053137;28;20207;-77
2023/10/12 10:32:23;;;;;;;1.40;0.82;;;;;;;19.42;52.62;95220.22;5051420;28;20188;-76
2023/10/12 10:34:56;;;;;;;0.50;0.50;;;;;;;19.50;52.22;95221.94;5054381;28;20557;-74
2023/10/12 10:37:47;;;;;;;2.20;1.67;;;;;;;19.60;51.58;95212.28;5052842;28;20664;-75
2023/10/12 10:40:17;;;;;;;2.60;1.77;;;;;;;19.78;52.00;95216.88;5053429;28;20231;-77
2023/10/12 10:42:57;;;;;;;1.98;1.40;;;;;;;20.05;50.92;95203.06;5059996;28;20207;-78
2023/10/12 10:45:26;;;;;;;2.67;2.05;;;;;;;20.22;50.03;95202.50;5050310;28;20308;-76
2023/10/12 10:47:56;;;;;;;1.23;1.13;;;;;;;20.25;49.65;95204.47;5052838;28;20594;-76
2023/10/12 10:50:24;;;;;;;2.20;1.65;;;;;;;20.53;49.65;95196.59;5051332;28;20231;-76
2023/10/12 10:52:59;;;;;;;1.92;1.30;;;;;;;20.69;48.88;95187.31;5050853;28;20322;-76
2023/10/12 10:55:31;;;;;;;2.53;1.88;;;;;;;20.88;48.61;95184.34;5049907;28;20203;-76
2023/10/12 10:58:00;;;;;;;2.30;1.90;;;;;;;20.99;47.77;95168.69;5051541;28;20207;-78
2023/10/12 11:00:37;;;;;;;3.08;2.10;;;;;;;20.91;47.99;95164.28;5051193;28;20705;-79
2023/10/12 11:03:05;;;;;;;4.38;1.67;;;;;;;20.96;47.60;95158.44;5053249;28;20230;-79
2023/10/12 11:05:37;;;;;;;1.30;1.13;;;;;;;20.93;47.91;95170.22;5049062;28;20211;-79
2023/10/12 11:08:19;;;;;;;2.88;1.83;;;;;;;20.63;49.11;95162.09;5051871;28;20540;-77
2023/10/12 11:13:32;;;;;;;2.65;1.92;;;;;;;20.73;47.99;95155.09;5055155;28;20214;-78
2023/10/12 11:16:05;;;;;;;2.78;1.63;;;;;;;20.72;47.97;95154.31;5051431;28;20211;-78
2023/10/12 11:18:32;;;;;;;2.78;1.50;;;;;;;20.87;47.75;95144.19;5048175;28;20243;-77
2023/10/12 11:21:04;;;;;;;5.28;1.80;;;;;;;20.78;47.75;95124.44;5049911;28;20587;-78
2023/10/12 11:23:31;;;;;;;2.40;1.50;;;;;;;20.96;47.62;95124.59;5052866;28;20623;-79
2023/10/12 11:26:07;;;;;;;2.35;1.80;;;;;;;21.27;47.56;95124.88;5055110;28;20230;-80
2023/10/12 11:28:34;;;;;;;1.70;1.40;;;;;;;21.46;46.63;95122.97;5051536;28;20294;-79
2023/10/12 11:31:20;;;;;;;3.47;1.95;;;;;;;21.36;46.70;95126.47;5046736;28;20235;-79
2023/10/12 11:33:51;;;;;;;3.10;2.03;;;;;;;21.24;47.13;95120.09;5050414;28;20231;-79
2023/10/12 11:36:24;;;;;;;1.85;1.50;;;;;;;21.23;47.24;95121.28;5050989;28;20617;-79
2023/10/12 11:39:00;;;;;;;2.42;1.80;;;;;;;21.10;46.87;95113.69;5049712;28;20580;-79
2023/10/12 11:41:27;;;;;;;3.28;2.35;;;;;;;20.88;47.54;95113.53;5050465;28;20202;-77
2023/10/12 11:43:57;;;;;;;1.90;1.63;;;;;;;20.84;48.26;95109.94;5056235;28;20610;-78
2023/10/12 11:46:25;;;;;;;1.85;1.63;;;;;;;20.86;47.33;95098.56;5050444;28;20192;-78
2023/10/12 11:49:03;;;;;;;1.98;1.35;;;;;;;21.03;47.17;95097.91;5047773;28;20199;-77
2023/10/12 11:51:40;;;;;;;2.97;1.73;;;;;;;20.97;47.27;95099.41;5046575;28;20195;-79
2023/10/12 11:54:09;;;;;;;2.63;1.65;;;;;;;20.97;47.36;95096.66;5049939;28;20207;-79
2023/10/12 11:56:43;;;;;;;1.45;1.23;;;;;;;21.21;47.38;95087.81;5052879;28;20570;-79
2023/10/12 11:59:22;;;;;;;3.25;1.80;;;;;;;21.57;46.48;95088.81;5050863;28;20219;-79
2023/10/12 12:01:51;;;;;;;1.38;1.17;;;;;;;21.76;45.77;95084.94;5050508;28;20286;-77
2023/10/12 12:04:24;;;;;;;2.90;1.60;;;;;;;21.80;46.34;95080.22;5055178;28;20207;-77
2023/10/12 12:06:53;;;;;;;1.40;1.15;;;;;;;21.47;46.33;95072.19;5050064;28;20203;-79
2023/10/12 12:09:22;;;;;;;1.80;1.25;;;;;;;21.33;46.83;95072.13;5048404;28;20256;-79
2023/10/12 12:11:53;;;;;;;2.33;1.20;;;;;;;21.26;47.55;95073.66;5050266;28;20200;-78
2023/10/12 12:14:20;;;;;;;3.00;1.67;;;;;;;21.06;47.55;95064.06;5047522;28;20218;-77
2023/10/12 12:16:47;;;;;;;1.45;1.17;;;;;;;21.08;46.95;95069.19;5048531;28;20579;-77
2023/10/12 12:19:19;;;;;;;1.60;1.48;;;;;;;21.19;47.42;95065.34;5050209;28;20216;-79
2023/10/12 12:21:46;;;;;;;3.78;1.42;;;;;;;21.51;46.66;95062.75;5048565;28;20289;-78
2023/10/12 12:24:22;;;;;;;1.77;1.30;;;;;;;21.37;47.10;95059.16;5048124;28;20294;-78
2023/10/12 12:26:52;;;;;;;1.67;1.40;;;;;;;21.46;47.46;95059.56;5037726;28;20187;-78
2023/10/12 12:29:22;;;;;;;2.20;1.50;;;;;;;21.47;46.97;95056.44;5049811;28;20199;-78
2023/10/12 12:31:49;;;;;;;1.35;1.20;;;;;;;21.67;46.66;95053.38;5050558;28;20200;-78
2023/10/12 12:34:34;;;;;;;1.90;1.23;;;;;;;21.68;46.19;95050.25;5050473;28;20215;-77
2023/10/12 12:37:04;;;;;;;3.03;1.40;;;;;;;21.58;46.97;95060.06;5047202;28;20203;-78
2023/10/12 12:39:34;;;;;;;2.13;1.27;;;;;;;21.69;46.36;95057.34;5054277;28;20330;-78
2023/10/12 12:42:01;;;;;;;1.38;1.27;;;;;;;21.89;45.93;95050.31;5054318;28;20203;-78
2023/10/12 12:44:28;;;;;;;3.08;1.30;;;;;;;21.93;45.92;95039.28;5046498;28;20212;-78